sensor_id;sensor_type;location;lat;lon;timestamp;pressure;altitude;pressure_sealevel;temperature;humidity
20210;BME280;10264;53.178;5.840;2022-09-11T00:00:39;99975.09;;;15.36;50.89
20210;BME280;10264;53.178;5.840;2022-09-11T00:03:05;99973.69;;;15.31;50.89
20210;BME280;10264;53.178;5.840;2022-09-11T00:05:36;99980.16;;;15.26;50.88
20210;BME280;10264;53.178;5.840;2022-09-11T00:08:02;99990.22;;;15.21;50.90
20210;BME280;10264;53.178;5.840;2022-09-11T00:10:28;99988.72;;;15.17;50.87
20210;BME280;10264;53.178;5.840;2022-09-11T00:12:55;99981.63;;;15.18;50.88
20210;BME280;10264;53.178;5.840;2022-09-11T00:15:21;99973.78;;;15.16;50.88
20210;BME280;10264;53.178;5.840;2022-09-11T00:17:48;99965.09;;;15.14;50.88
20210;BME280;10264;53.178;5.840;2022-09-11T00:20:14;99970.81;;;15.08;50.91
20210;BME280;10264;53.178;5.840;2022-09-11T00:22:41;99971.88;;;15.06;50.88
20210;BME280;10264;53.178;5.840;2022-09-11T00:25:07;99971.22;;;15.02;50.90
20210;BME280;10264;53.178;5.840;2022-09-11T00:27:34;99983.91;;;14.97;50.89
20210;BME280;10264;53.178;5.840;2022-09-11T00:30:00;99978.59;;;14.97;50.89
20210;BME280;10264;53.178;5.840;2022-09-11T00:32:27;99970.88;;;14.94;50.89
20210;BME280;10264;53.178;5.840;2022-09-11T00:34:53;99973.75;;;14.91;50.88
20210;BME280;10264;53.178;5.840;2022-09-11T00:37:19;99972.22;;;14.87;50.92
20210;BME280;10264;53.178;5.840;2022-09-11T00:39:46;99967.34;;;14.81;50.89
20210;BME280;10264;53.178;5.840;2022-09-11T00:42:13;99970.19;;;14.78;50.89
20210;BME280;10264;53.178;5.840;2022-09-11T00:47:07;99965.09;;;14.75;50.89
20210;BME280;10264;53.178;5.840;2022-09-11T00:49:47;99954.63;;;14.73;50.89
20210;BME280;10264;53.178;5.840;2022-09-11T00:52:18;99957.47;;;14.70;50.90
20210;BME280;10264;53.178;5.840;2022-09-11T00:54:49;99943.59;;;14.67;50.89
20210;BME280;10264;53.178;5.840;2022-09-11T00:57:20;99945.69;;;14.62;50.88
20210;BME280;10264;53.178;5.840;2022-09-11T00:59:48;99949.50;;;14.58;50.90
20210;BME280;10264;53.178;5.840;2022-09-11T01:02:18;99939.94;;;14.55;50.89
20210;BME280;10264;53.178;5.840;2022-09-11T01:04:52;99941.75;;;14.55;50.88
20210;BME280;10264;53.178;5.840;2022-09-11T01:07:20;99931.38;;;14.52;50.91
20210;BME280;10264;53.178;5.840;2022-09-11T01:09:48;99933.16;;;14.51;50.92
20210;BME280;10264;53.178;5.840;2022-09-11T01:12:22;99925.31;;;14.50;50.90
20210;BME280;10264;53.178;5.840;2022-09-11T01:14:56;99921.09;;;14.47;50.89
20210;BME280;10264;53.178;5.840;2022-09-11T01:20:30;99914.41;;;14.42;50.92
20210;BME280;10264;53.178;5.840;2022-09-11T01:23:30;99913.78;;;14.38;50.91
20210;BME280;10264;53.178;5.840;2022-09-11T01:31:41;99901.94;;;14.29;50.94
20210;BME280;10264;53.178;5.840;2022-09-11T01:34:16;99905.72;;;14.25;50.92
20210;BME280;10264;53.178;5.840;2022-09-11T01:36:52;99909.34;;;14.24;50.92
20210;BME280;10264;53.178;5.840;2022-09-11T01:39:22;99894.59;;;14.20;50.92
20210;BME280;10264;53.178;5.840;2022-09-11T01:41:55;99896.50;;;14.18;50.92
20210;BME280;10264;53.178;5.840;2022-09-11T01:44:47;99907.25;;;14.15;50.94
20210;BME280;10264;53.178;5.840;2022-09-11T01:47:17;99903.34;;;14.08;50.92
20210;BME280;10264;53.178;5.840;2022-09-11T01:49:52;99888.50;;;14.06;50.90
20210;BME280;10264;53.178;5.840;2022-09-11T01:52:24;99887.69;;;14.05;50.90
20210;BME280;10264;53.178;5.840;2022-09-11T01:54:55;99864.84;;;14.04;50.91
20210;BME280;10264;53.178;5.840;2022-09-11T01:57:38;99857.84;;;14.03;50.91
20210;BME280;10264;53.178;5.840;2022-09-11T02:00:09;99856.34;;;13.99;50.91
20210;BME280;10264;53.178;5.840;2022-09-11T02:02:40;99858.06;;;14.00;50.91
20210;BME280;10264;53.178;5.840;2022-09-11T02:05:41;99848.44;;;13.99;50.94
20210;BME280;10264;53.178;5.840;2022-09-11T02:08:30;99843.22;;;13.97;50.94
20210;BME280;10264;53.178;5.840;2022-09-11T02:11:06;99849.75;;;13.92;50.90
20210;BME280;10264;53.178;5.840;2022-09-11T02:14:24;99843.31;;;13.96;50.95
20210;BME280;10264;53.178;5.840;2022-09-11T02:16:38;99835.22;;;13.99;50.94
20210;BME280;10264;53.178;5.840;2022-09-11T02:19:10;99825.91;;;14.06;50.97
20210;BME280;10264;53.178;5.840;2022-09-11T02:21:37;99825.59;;;13.98;50.94
20210;BME280;10264;53.178;5.840;2022-09-11T02:24:04;99825.03;;;13.93;50.95
20210;BME280;10264;53.178;5.840;2022-09-11T02:26:34;99828.81;;;13.89;50.94
20210;BME280;10264;53.178;5.840;2022-09-11T02:29:02;99828.19;;;13.85;50.93
20210;BME280;10264;53.178;5.840;2022-09-11T02:31:28;99823.75;;;13.86;50.94
20210;BME280;10264;53.178;5.840;2022-09-11T02:33:55;99821.44;;;13.94;50.97
20210;BME280;10264;53.178;5.840;2022-09-11T02:41:22;99830.09;;;13.69;50.93
20210;BME280;10264;53.178;5.840;2022-09-11T02:49:48;99828.88;;;13.61;50.62
20210;BME280;10264;53.178;5.840;2022-09-11T03:00:01;99838.13;;;13.53;50.59
20210;BME280;10264;53.178;5.840;2022-09-11T03:02:29;99842.75;;;13.50;50.60
20210;BME280;10264;53.178;5.840;2022-09-11T03:04:57;99840.41;;;13.45;50.60
20210;BME280;10264;53.178;5.840;2022-09-11T03:07:24;99838.63;;;13.46;50.59
20210;BME280;10264;53.178;5.840;2022-09-11T03:09:51;99839.47;;;13.46;50.60
20210;BME280;10264;53.178;5.840;2022-09-11T03:12:18;99833.41;;;13.44;50.60
20210;BME280;10264;53.178;5.840;2022-09-11T03:14:44;99844.19;;;13.41;50.60
20210;BME280;10264;53.178;5.840;2022-09-11T03:17:10;99838.25;;;13.38;50.60
20210;BME280;10264;53.178;5.840;2022-09-11T03:19:37;99829.47;;;13.37;50.59
20210;BME280;10264;53.178;5.840;2022-09-11T03:22:03;99830.41;;;13.36;50.61
20210;BME280;10264;53.178;5.840;2022-09-11T03:24:30;99834.84;;;13.36;50.60
20210;BME280;10264;53.178;5.840;2022-09-11T03:26:56;99837.41;;;13.37;50.60
20210;BME280;10264;53.178;5.840;2022-09-11T03:29:23;99834.75;;;13.37;50.61
20210;BME280;10264;53.178;5.840;2022-09-11T03:31:49;99842.13;;;13.32;50.62
20210;BME280;10264;53.178;5.840;2022-09-11T03:34:15;99837.97;;;13.28;50.60
20210;BME280;10264;53.178;5.840;2022-09-11T03:36:42;99834.00;;;13.35;50.63
20210;BME280;10264;53.178;5.840;2022-09-11T03:39:09;99831.34;;;13.35;50.62
20210;BME280;10264;53.178;5.840;2022-09-11T03:41:35;99836.44;;;13.38;50.63
20210;BME280;10264;53.178;5.840;2022-09-11T03:44:02;99822.50;;;13.36;50.64
20210;BME280;10264;53.178;5.840;2022-09-11T03:46:28;99824.38;;;13.34;50.63
20210;BME280;10264;53.178;5.840;2022-09-11T03:48:55;99827.28;;;13.30;50.66
20210;BME280;10264;53.178;5.840;2022-09-11T03:51:21;99826.56;;;13.28;50.63
20210;BME280;10264;53.178;5.840;2022-09-11T03:53:48;99829.09;;;13.29;50.66
20210;BME280;10264;53.178;5.840;2022-09-11T03:56:14;99818.91;;;13.37;50.68
20210;BME280;10264;53.178;5.840;2022-09-11T03:58:41;99805.53;;;13.40;50.69
20210;BME280;10264;53.178;5.840;2022-09-11T04:01:12;99802.94;;;13.53;50.70
20210;BME280;10264;53.178;5.840;2022-09-11T04:03:40;99813.44;;;13.40;50.68
20210;BME280;10264;53.178;5.840;2022-09-11T04:06:07;99811.66;;;13.41;50.68
20210;BME280;10264;53.178;5.840;2022-09-11T04:08:33;99807.97;;;13.43;50.70
20210;BME280;10264;53.178;5.840;2022-09-11T04:11:02;99811.84;;;13.38;50.72
20210;BME280;10264;53.178;5.840;2022-09-11T04:13:31;99810.53;;;13.31;50.70
20210;BME280;10264;53.178;5.840;2022-09-11T04:16:04;99813.38;;;13.28;50.70
20210;BME280;10264;53.178;5.840;2022-09-11T04:18:33;99819.09;;;13.20;50.69
20210;BME280;10264;53.178;5.840;2022-09-11T04:21:04;99824.38;;;13.20;50.70
20210;BME280;10264;53.178;5.840;2022-09-11T04:23:31;99823.81;;;13.15;50.68
20210;BME280;10264;53.178;5.840;2022-09-11T04:25:57;99828.34;;;13.13;50.69
20210;BME280;10264;53.178;5.840;2022-09-11T04:28:26;99823.06;;;13.13;50.69
20210;BME280;10264;53.178;5.840;2022-09-11T04:30:52;99823.06;;;13.13;50.66
20210;BME280;10264;53.178;5.840;2022-09-11T04:33:18;99821.41;;;13.10;50.65
20210;BME280;10264;53.178;5.840;2022-09-11T04:35:45;99824.94;;;13.11;50.67
20210;BME280;10264;53.178;5.840;2022-09-11T04:38:11;99825.59;;;13.15;50.68
20210;BME280;10264;53.178;5.840;2022-09-11T04:40:37;99826.69;;;13.10;50.66
20210;BME280;10264;53.178;5.840;2022-09-11T04:43:04;99823.41;;;13.07;50.67
20210;BME280;10264;53.178;5.840;2022-09-11T04:45:30;99829.53;;;13.07;50.67
20210;BME280;10264;53.178;5.840;2022-09-11T04:47:57;99828.69;;;13.07;50.68
20210;BME280;10264;53.178;5.840;2022-09-11T04:50:24;99826.97;;;13.06;50.69
20210;BME280;10264;53.178;5.840;2022-09-11T04:52:50;99822.56;;;13.06;50.69
20210;BME280;10264;53.178;5.840;2022-09-11T04:55:16;99827.06;;;13.04;50.68
20210;BME280;10264;53.178;5.840;2022-09-11T04:57:43;99827.91;;;13.05;50.69
20210;BME280;10264;53.178;5.840;2022-09-11T05:00:10;99818.97;;;13.07;50.69
20210;BME280;10264;53.178;5.840;2022-09-11T05:02:36;99820.97;;;13.04;50.70
20210;BME280;10264;53.178;5.840;2022-09-11T05:05:03;99823.78;;;13.01;50.69
20210;BME280;10264;53.178;5.840;2022-09-11T05:07:29;99821.25;;;12.99;50.70
20210;BME280;10264;53.178;5.840;2022-09-11T05:09:56;99831.53;;;13.04;50.72
20210;BME280;10264;53.178;5.840;2022-09-11T05:12:22;99822.56;;;13.06;50.72
20210;BME280;10264;53.178;5.840;2022-09-11T05:14:49;99824.75;;;13.14;50.73
20210;BME280;10264;53.178;5.840;2022-09-11T05:17:15;99818.38;;;13.18;50.73
20210;BME280;10264;53.178;5.840;2022-09-11T05:19:41;99813.81;;;13.20;50.75
20210;BME280;10264;53.178;5.840;2022-09-11T05:22:08;99820.59;;;13.24;50.76
20210;BME280;10264;53.178;5.840;2022-09-11T05:24:34;99822.97;;;13.29;50.77
20210;BME280;10264;53.178;5.840;2022-09-11T05:27:00;99818.16;;;13.35;50.77
20210;BME280;10264;53.178;5.840;2022-09-11T05:29:27;99808.91;;;13.42;50.80
20210;BME280;10264;53.178;5.840;2022-09-11T05:31:58;99803.78;;;13.53;50.82
20210;BME280;10264;53.178;5.840;2022-09-11T05:34:25;99789.53;;;13.70;50.85
20210;BME280;10264;53.178;5.840;2022-09-11T05:36:51;99793.03;;;13.71;50.86
20210;BME280;10264;53.178;5.840;2022-09-11T05:39:18;99800.75;;;13.74;50.85
20210;BME280;10264;53.178;5.840;2022-09-11T05:41:44;99801.50;;;13.76;50.85
20210;BME280;10264;53.178;5.840;2022-09-11T05:44:10;99785.78;;;13.87;50.89
20210;BME280;10264;53.178;5.840;2022-09-11T05:46:37;99774.44;;;13.99;50.90
20210;BME280;10264;53.178;5.840;2022-09-11T05:49:03;99765.69;;;14.11;50.94
20210;BME280;10264;53.178;5.840;2022-09-11T05:51:29;99748.16;;;14.23;50.96
20210;BME280;10264;53.178;5.840;2022-09-11T05:53:56;99734.44;;;14.30;50.98
20210;BME280;10264;53.178;5.840;2022-09-11T05:56:23;99732.53;;;14.32;50.98
20210;BME280;10264;53.178;5.840;2022-09-11T05:58:50;99732.53;;;14.32;50.98
20210;BME280;10264;53.178;5.840;2022-09-11T06:01:19;99716.47;;;14.35;50.91
20210;BME280;10264;53.178;5.840;2022-09-11T06:03:45;99616.66;;;14.52;50.83
20210;BME280;10264;53.178;5.840;2022-09-11T06:06:12;99577.84;;;14.89;50.86
20210;BME280;10264;53.178;5.840;2022-09-11T06:08:39;99520.91;;;15.07;50.88
20210;BME280;10264;53.178;5.840;2022-09-11T06:11:06;99447.81;;;15.96;51.06
20210;BME280;10264;53.178;5.840;2022-09-11T06:13:38;99245.25;;;18.13;51.37
20210;BME280;10264;53.178;5.840;2022-09-11T06:16:13;99003.63;;;19.71;51.47
20210;BME280;10264;53.178;5.840;2022-09-11T06:18:45;98965.28;;;20.73;51.61
20210;BME280;10264;53.178;5.840;2022-09-11T06:21:12;98934.81;;;21.65;51.67
20210;BME280;10264;53.178;5.840;2022-09-11T06:23:38;98902.06;;;22.57;51.68
20210;BME280;10264;53.178;5.840;2022-09-11T06:26:15;98875.66;;;23.37;51.68
20210;BME280;10264;53.178;5.840;2022-09-11T06:28:42;98826.81;;;24.44;51.65
20210;BME280;10264;53.178;5.840;2022-09-11T06:31:11;98809.06;;;25.41;51.67
20210;BME280;10264;53.178;5.840;2022-09-11T06:33:39;98870.47;;;25.59;51.74
20210;BME280;10264;53.178;5.840;2022-09-11T06:36:09;98994.69;;;25.41;51.79
20210;BME280;10264;53.178;5.840;2022-09-11T06:38:36;99162.91;;;25.23;51.70
20210;BME280;10264;53.178;5.840;2022-09-11T06:41:05;99286.84;;;25.80;51.53
20210;BME280;10264;53.178;5.840;2022-09-11T06:43:31;99498.69;;;26.53;51.29
20210;BME280;10264;53.178;5.840;2022-09-11T06:46:06;99867.41;;;26.65;50.96
20210;BME280;10264;53.178;5.840;2022-09-11T06:48:32;100169.09;;;25.79;50.84
20210;BME280;10264;53.178;5.840;2022-09-11T06:51:03;100284.25;;;26.10;50.85
20210;BME280;10264;53.178;5.840;2022-09-11T06:53:29;100360.78;;;26.25;50.87
20210;BME280;10264;53.178;5.840;2022-09-11T06:56:00;100391.03;;;26.93;50.93
20210;BME280;10264;53.178;5.840;2022-09-11T06:58:27;100428.53;;;27.67;50.97
20210;BME280;10264;53.178;5.840;2022-09-11T07:01:04;100500.72;;;27.98;51.08
20210;BME280;10264;53.178;5.840;2022-09-11T07:03:31;100572.41;;;27.61;51.12
20210;BME280;10264;53.178;5.840;2022-09-11T07:05:59;100615.22;;;27.40;51.20
20210;BME280;10264;53.178;5.840;2022-09-11T07:08:26;100576.41;;;27.98;55.16
20210;BME280;10264;53.178;5.840;2022-09-11T07:10:52;100534.94;;;28.99;100.00
20210;BME280;10264;53.178;5.840;2022-09-11T07:13:19;100520.88;;;29.64;100.00
20210;BME280;10264;53.178;5.840;2022-09-11T07:15:46;100554.09;;;29.21;100.00
20210;BME280;10264;53.178;5.840;2022-09-11T07:18:12;100610.69;;;28.13;100.00
20210;BME280;10264;53.178;5.840;2022-09-11T07:20:39;100581.75;;;28.30;100.00
20210;BME280;10264;53.178;5.840;2022-09-11T07:23:07;100498.00;;;29.07;100.00
20210;BME280;10264;53.178;5.840;2022-09-11T07:25:35;100672.97;;;29.38;100.00
20210;BME280;10264;53.178;5.840;2022-09-11T07:28:02;100948.75;;;29.35;100.00
20210;BME280;10264;53.178;5.840;2022-09-11T07:30:28;101314.81;;;29.64;100.00
20210;BME280;10264;53.178;5.840;2022-09-11T07:32:55;101594.69;;;30.68;100.00
20210;BME280;10264;53.178;5.840;2022-09-11T07:35:21;101876.75;;;31.73;100.00
20210;BME280;10264;53.178;5.840;2022-09-11T07:37:48;102045.03;;;31.50;100.00
20210;BME280;10264;53.178;5.840;2022-09-11T07:40:16;102148.06;;;31.61;100.00
20210;BME280;10264;53.178;5.840;2022-09-11T07:42:43;102201.56;;;30.62;100.00
20210;BME280;10264;53.178;5.840;2022-09-11T07:45:12;102232.81;;;31.21;100.00
20210;BME280;10264;53.178;5.840;2022-09-11T07:47:38;102254.22;;;31.06;100.00
20210;BME280;10264;53.178;5.840;2022-09-11T07:50:15;102272.00;;;30.91;100.00
20210;BME280;10264;53.178;5.840;2022-09-11T07:52:43;102267.19;;;30.48;100.00
20210;BME280;10264;53.178;5.840;2022-09-11T07:55:09;102252.75;;;29.92;100.00
20210;BME280;10264;53.178;5.840;2022-09-11T07:57:36;102216.16;;;28.99;100.00
20210;BME280;10264;53.178;5.840;2022-09-11T08:00:03;102230.34;;;29.41;100.00
20210;BME280;10264;53.178;5.840;2022-09-11T08:02:29;102271.63;;;30.49;100.00
20210;BME280;10264;53.178;5.840;2022-09-11T08:04:56;102281.00;;;30.64;100.00
20210;BME280;10264;53.178;5.840;2022-09-11T08:07:22;102264.00;;;29.58;100.00
20210;BME280;10264;53.178;5.840;2022-09-11T08:09:49;102261.91;;;29.02;100.00
20210;BME280;10264;53.178;5.840;2022-09-11T08:12:35;102257.28;;;29.33;100.00
20210;BME280;10264;53.178;5.840;2022-09-11T08:15:01;102278.13;;;29.81;100.00
20210;BME280;10264;53.178;5.840;2022-09-11T08:17:28;102290.81;;;29.61;100.00
20210;BME280;10264;53.178;5.840;2022-09-11T08:19:54;102275.59;;;29.01;100.00
20210;BME280;10264;53.178;5.840;2022-09-11T08:22:21;102300.53;;;29.73;100.00
20210;BME280;10264;53.178;5.840;2022-09-11T08:24:47;102311.03;;;28.16;100.00
20210;BME280;10264;53.178;5.840;2022-09-11T08:27:13;102276.75;;;26.66;100.00
20210;BME280;10264;53.178;5.840;2022-09-11T08:29:40;102222.31;;;25.34;100.00
20210;BME280;10264;53.178;5.840;2022-09-11T08:32:06;102139.09;;;24.47;100.00
20210;BME280;10264;53.178;5.840;2022-09-11T08:34:33;102066.63;;;23.71;100.00
20210;BME280;10264;53.178;5.840;2022-09-11T08:36:59;101968.44;;;24.16;100.00
20210;BME280;10264;53.178;5.840;2022-09-11T08:39:26;102072.06;;;24.20;100.00
20210;BME280;10264;53.178;5.840;2022-09-11T08:41:57;102027.56;;;23.54;100.00
20210;BME280;10264;53.178;5.840;2022-09-11T08:44:30;101809.03;;;25.50;100.00
20210;BME280;10264;53.178;5.840;2022-09-11T08:47:06;102255.22;;;29.26;100.00
20210;BME280;10264;53.178;5.840;2022-09-11T08:49:39;102323.16;;;32.47;100.00
20210;BME280;10264;53.178;5.840;2022-09-11T08:52:12;102346.38;;;34.82;100.00
20210;BME280;10264;53.178;5.840;2022-09-11T08:54:40;102332.25;;;36.84;100.00
20210;BME280;10264;53.178;5.840;2022-09-11T08:57:16;102335.03;;;37.70;100.00
20210;BME280;10264;53.178;5.840;2022-09-11T09:00:11;102339.69;;;37.91;100.00
20210;BME280;10264;53.178;5.840;2022-09-11T09:03:05;102341.78;;;38.59;100.00
20210;BME280;10264;53.178;5.840;2022-09-11T09:05:54;102332.16;;;39.85;96.66
20210;BME280;10264;53.178;5.840;2022-09-11T09:11:43;102336.38;;;40.40;92.63
20210;BME280;10264;53.178;5.840;2022-09-11T09:19:48;102344.94;;;41.85;80.09
20210;BME280;10264;53.178;5.840;2022-09-11T09:24:56;102390.72;;;35.78;95.56
20210;BME280;10264;53.178;5.840;2022-09-11T09:27:29;102383.44;;;33.96;100.00
20210;BME280;10264;53.178;5.840;2022-09-11T09:30:01;102363.22;;;35.49;100.00
20210;BME280;10264;53.178;5.840;2022-09-11T09:32:33;102361.75;;;36.67;100.00
20210;BME280;10264;53.178;5.840;2022-09-11T09:35:04;102356.63;;;37.73;94.59
20210;BME280;10264;53.178;5.840;2022-09-11T09:37:37;102343.50;;;39.42;95.05
20210;BME280;10264;53.178;5.840;2022-09-11T09:40:06;102347.81;;;40.10;89.63
20210;BME280;10264;53.178;5.840;2022-09-11T09:48:17;102374.22;;;38.77;89.81
20210;BME280;10264;53.178;5.840;2022-09-11T09:50:44;102408.56;;;34.56;100.00
20210;BME280;10264;53.178;5.840;2022-09-11T09:53:16;102424.59;;;31.24;100.00
20210;BME280;10264;53.178;5.840;2022-09-11T09:55:47;102448.84;;;29.42;100.00
20210;BME280;10264;53.178;5.840;2022-09-11T09:58:14;102441.66;;;27.85;100.00
20210;BME280;10264;53.178;5.840;2022-09-11T10:00:40;102422.63;;;26.86;100.00
20210;BME280;10264;53.178;5.840;2022-09-11T10:03:18;102407.00;;;26.09;100.00
20210;BME280;10264;53.178;5.840;2022-09-11T10:05:46;102383.47;;;25.27;100.00
20210;BME280;10264;53.178;5.840;2022-09-11T10:10:59;102340.31;;;24.40;100.00
20210;BME280;10264;53.178;5.840;2022-09-11T10:13:29;102311.34;;;25.56;100.00
20210;BME280;10264;53.178;5.840;2022-09-11T10:16:01;102363.38;;;27.84;100.00
20210;BME280;10264;53.178;5.840;2022-09-11T10:23:53;102354.06;;;35.26;100.00
20210;BME280;10264;53.178;5.840;2022-09-11T10:26:40;102356.09;;;36.31;100.00
20210;BME280;10264;53.178;5.840;2022-09-11T10:31:47;102365.31;;;35.93;100.00
20210;BME280;10264;53.178;5.840;2022-09-11T10:34:16;102383.63;;;34.59;100.00
20210;BME280;10264;53.178;5.840;2022-09-11T10:39:37;102350.69;;;37.70;97.01
20210;BME280;10264;53.178;5.840;2022-09-11T10:42:14;102356.28;;;38.47;90.37
20210;BME280;10264;53.178;5.840;2022-09-11T10:44:43;102356.63;;;38.65;94.01
20210;BME280;10264;53.178;5.840;2022-09-11T10:49:46;102354.41;;;37.83;100.00
20210;BME280;10264;53.178;5.840;2022-09-11T10:59:57;102341.69;;;39.21;93.23
20210;BME280;10264;53.178;5.840;2022-09-11T11:02:29;102337.63;;;39.78;94.59
20210;BME280;10264;53.178;5.840;2022-09-11T11:05:00;102337.13;;;39.42;88.85
20210;BME280;10264;53.178;5.840;2022-09-11T11:18:52;102328.19;;;36.80;98.57
20210;BME280;10264;53.178;5.840;2022-09-11T11:21:26;102334.38;;;37.32;97.83
20210;BME280;10264;53.178;5.840;2022-09-11T11:27:29;102345.72;;;36.79;90.86
20210;BME280;10264;53.178;5.840;2022-09-11T11:33:04;102338.91;;;37.76;93.40
20210;BME280;10264;53.178;5.840;2022-09-11T11:35:43;102329.25;;;37.44;89.61
20210;BME280;10264;53.178;5.840;2022-09-11T11:38:19;102353.56;;;36.07;90.71
20210;BME280;10264;53.178;5.840;2022-09-11T11:40:51;102369.13;;;34.67;96.54
20210;BME280;10264;53.178;5.840;2022-09-11T11:43:24;102392.41;;;31.46;100.00
20210;BME280;10264;53.178;5.840;2022-09-11T11:49:05;102408.91;;;27.56;100.00
20210;BME280;10264;53.178;5.840;2022-09-11T11:51:17;102391.50;;;27.05;100.00
20210;BME280;10264;53.178;5.840;2022-09-11T11:53:56;102383.13;;;26.97;100.00
20210;BME280;10264;53.178;5.840;2022-09-11T12:01:30;102380.41;;;29.20;100.00
20210;BME280;10264;53.178;5.840;2022-09-11T12:04:11;102375.34;;;28.13;100.00
20210;BME280;10264;53.178;5.840;2022-09-11T12:06:41;102365.97;;;27.85;100.00
20210;BME280;10264;53.178;5.840;2022-09-11T12:09:08;102357.69;;;27.66;100.00
20210;BME280;10264;53.178;5.840;2022-09-11T12:11:34;102353.44;;;27.08;100.00
20210;BME280;10264;53.178;5.840;2022-09-11T12:14:01;102358.47;;;27.12;100.00
20210;BME280;10264;53.178;5.840;2022-09-11T12:16:31;102350.97;;;27.16;100.00
20210;BME280;10264;53.178;5.840;2022-09-11T12:26:24;102338.28;;;25.80;100.00
20210;BME280;10264;53.178;5.840;2022-09-11T12:32:17;102311.91;;;24.61;100.00
20210;BME280;10264;53.178;5.840;2022-09-11T12:37:13;102225.38;;;24.31;100.00
20210;BME280;10264;53.178;5.840;2022-09-11T12:39:55;102197.28;;;24.10;100.00
20210;BME280;10264;53.178;5.840;2022-09-11T12:44:57;102150.09;;;23.80;100.00
20210;BME280;10264;53.178;5.840;2022-09-11T12:47:34;102128.91;;;23.88;100.00
20210;BME280;10264;53.178;5.840;2022-09-11T12:50:06;102132.81;;;23.59;100.00
20210;BME280;10264;53.178;5.840;2022-09-11T12:52:47;102121.41;;;23.68;100.00
20210;BME280;10264;53.178;5.840;2022-09-11T12:55:29;102087.66;;;23.89;100.00
20210;BME280;10264;53.178;5.840;2022-09-11T12:58:00;102078.13;;;23.73;100.00
20210;BME280;10264;53.178;5.840;2022-09-11T13:00:39;102069.19;;;23.60;100.00
20210;BME280;10264;53.178;5.840;2022-09-11T13:03:16;102012.47;;;23.39;100.00
20210;BME280;10264;53.178;5.840;2022-09-11T13:05:53;101959.34;;;23.44;100.00
20210;BME280;10264;53.178;5.840;2022-09-11T13:08:23;101875.94;;;23.47;100.00
20210;BME280;10264;53.178;5.840;2022-09-11T13:10:51;101833.38;;;23.41;100.00
20210;BME280;10264;53.178;5.840;2022-09-11T13:18:44;101702.69;;;23.89;100.00
20210;BME280;10264;53.178;5.840;2022-09-11T13:21:14;101742.22;;;24.11;100.00
20210;BME280;10264;53.178;5.840;2022-09-11T13:23:40;101771.66;;;24.58;100.00
20210;BME280;10264;53.178;5.840;2022-09-11T13:26:13;101881.94;;;24.81;100.00
20210;BME280;10264;53.178;5.840;2022-09-11T13:28:46;102009.09;;;24.83;100.00
20210;BME280;10264;53.178;5.840;2022-09-11T13:31:19;102046.00;;;24.69;100.00
20210;BME280;10264;53.178;5.840;2022-09-11T13:33:50;102028.81;;;24.59;100.00
20210;BME280;10264;53.178;5.840;2022-09-11T13:36:22;102051.53;;;24.31;100.00
20210;BME280;10264;53.178;5.840;2022-09-11T13:38:55;101945.97;;;24.64;100.00
20210;BME280;10264;53.178;5.840;2022-09-11T13:41:26;102030.22;;;24.89;100.00
20210;BME280;10264;53.178;5.840;2022-09-11T13:43:56;102061.38;;;24.91;100.00
20210;BME280;10264;53.178;5.840;2022-09-11T13:49:13;102075.69;;;24.92;100.00
20210;BME280;10264;53.178;5.840;2022-09-11T13:51:46;102053.47;;;24.77;100.00
20210;BME280;10264;53.178;5.840;2022-09-11T13:54:16;102038.81;;;24.81;100.00
20210;BME280;10264;53.178;5.840;2022-09-11T13:56:44;102045.66;;;24.98;100.00
20210;BME280;10264;53.178;5.840;2022-09-11T14:02:24;102060.06;;;24.97;100.00
20210;BME280;10264;53.178;5.840;2022-09-11T14:05:00;102046.41;;;25.11;100.00
20210;BME280;10264;53.178;5.840;2022-09-11T14:07:27;102034.22;;;25.29;100.00
20210;BME280;10264;53.178;5.840;2022-09-11T14:10:05;102061.22;;;25.63;100.00
20210;BME280;10264;53.178;5.840;2022-09-11T14:12:34;102076.56;;;26.07;100.00
20210;BME280;10264;53.178;5.840;2022-09-11T14:15:19;102109.50;;;26.10;100.00
20210;BME280;10264;53.178;5.840;2022-09-11T14:17:47;102126.31;;;26.02;100.00
20210;BME280;10264;53.178;5.840;2022-09-11T14:20:17;102137.94;;;26.14;100.00
20210;BME280;10264;53.178;5.840;2022-09-11T14:22:44;102125.19;;;26.50;100.00
20210;BME280;10264;53.178;5.840;2022-09-11T14:25:19;102129.06;;;26.79;100.00
20210;BME280;10264;53.178;5.840;2022-09-11T14:27:46;102132.03;;;26.54;100.00
20210;BME280;10264;53.178;5.840;2022-09-11T14:35:38;102121.50;;;26.06;100.00
20210;BME280;10264;53.178;5.840;2022-09-11T14:38:05;102113.69;;;26.25;100.00
20210;BME280;10264;53.178;5.840;2022-09-11T14:40:31;102109.66;;;26.09;100.00
20210;BME280;10264;53.178;5.840;2022-09-11T14:42:58;102112.69;;;26.15;100.00
20210;BME280;10264;53.178;5.840;2022-09-11T14:45:24;102109.50;;;25.88;100.00
20210;BME280;10264;53.178;5.840;2022-09-11T14:47:51;102099.94;;;25.73;100.00
20210;BME280;10264;53.178;5.840;2022-09-11T14:50:18;102102.50;;;25.28;100.00
20210;BME280;10264;53.178;5.840;2022-09-11T14:52:44;102093.53;;;25.16;100.00
20210;BME280;10264;53.178;5.840;2022-09-11T14:55:18;102069.41;;;25.15;100.00
20210;BME280;10264;53.178;5.840;2022-09-11T14:57:45;102064.59;;;25.42;100.00
20210;BME280;10264;53.178;5.840;2022-09-11T15:00:17;102083.66;;;25.28;100.00
20210;BME280;10264;53.178;5.840;2022-09-11T15:02:43;102080.97;;;24.93;100.00
20210;BME280;10264;53.178;5.840;2022-09-11T15:05:14;102076.63;;;25.14;100.00
20210;BME280;10264;53.178;5.840;2022-09-11T15:07:41;102076.97;;;25.10;100.00
20210;BME280;10264;53.178;5.840;2022-09-11T15:10:09;102071.41;;;25.24;100.00
20210;BME280;10264;53.178;5.840;2022-09-11T15:12:36;102075.06;;;25.23;100.00